Terminal Aerodrome Forecast
Issued by NWS

Home | Current Version | Previous Version | Text Only | Print | Product List | Glossary On
Versions: 1 2 3 4 5 6 7 8 9 10 11 12 13 14 15 16 17 18 19 20 21 22 23 24 25 26 27 28 29 30 31
000
FTUS46 KOTX 260102 AAA
TAFMWH
TAF AMD
KMWH 260102Z 2601/2624 01012KT P6SM VCSH FEW080 SCT090
     FM260600 31004KT P6SM SCT150
     FM261500 22006KT P6SM SCT080 BKN150=

USA.gov is the U.S. government's official web portal to all federal, state and local government web resources and services.